| time (UTC) | temp C | wind direction | speed KPH | gust KPH | rain 1hr cm | rain 24hr cm | rain mn cm | humidity % | barometer mb |
| 20260503020044 | 18 | 209 | 6.4 | 11.3 | 0.00 | 0.00 | 0.00 | 32 | 1014.9 |
| 20260503014553 | 18 | 194 | 11.3 | 14.5 | 0.00 | 0.00 | 0.00 | 32 | 1014.9 |
| 20260503013049 | 18 | 244 | 3.2 | 6.4 | 0.00 | 0.00 | 0.00 | 33 | 1014.8 |
| 20260503011550 | 18 | 244 | 1.6 | 4.8 | 0.00 | 0.00 | 0.00 | 32 | 1015.0 |
| 20260503010048 | 19 | 244 | 9.7 | 19.3 | 0.00 | 0.00 | 0.00 | 31 | 1015.1 |
| 20260503004549 | 18 | 152 | 6.4 | 16.1 | 0.00 | 0.00 | 0.00 | 32 | 1015.2 |
| 20260503003051 | 18 | 128 | 12.9 | 17.7 | 0.00 | 0.00 | 0.00 | 32 | 1015.2 |
| 20260503001541 | 18 | 153 | 9.7 | 16.1 | 0.00 | 0.00 | 0.00 | 33 | 1015.5 |
| 20260503000051 | 18 | 131 | 4.8 | 12.9 | 0.00 | 0.00 | 0.00 | 32 | 1015.7 |
| 20260502234558 | 20 | 117 | 3.2 | 9.7 | 0.00 | 0.00 | 0.00 | 30 | 1015.5 |
| 20260502233048 | 21 | 284 | 3.2 | 11.3 | 0.00 | 0.00 | 0.00 | 28 | 1015.8 |
| 20260502231600 | 21 | 337 | 1.6 | 12.9 | 0.00 | 0.00 | 0.00 | 29 | 1015.9 |
| 20260502230044 | 21 | 12 | 6.4 | 14.5 | 0.00 | 0.00 | 0.00 | 28 | 1016.0 |
| 20260502224550 | 21 | 274 | 4.8 | 14.5 | 0.00 | 0.00 | 0.00 | 29 | 1016.2 |
| 20260502223051 | 20 | 217 | 3.2 | 16.1 | 0.00 | 0.00 | 0.00 | 31 | 1016.2 |
| 20260502221547 | 20 | 129 | 4.8 | 17.7 | 0.00 | 0.00 | 0.00 | 31 | 1016.4 |
| 20260502220048 | 19 | 108 | 1.6 | 14.5 | 0.00 | 0.00 | 0.00 | 32 | 1016.6 |
| 20260502214548 | 18 | 259 | 1.6 | 11.3 | 0.00 | 0.00 | 0.00 | 32 | 1017.1 |
| 20260502213044 | 18 | 74 | 4.8 | 11.3 | 0.00 | 0.00 | 0.00 | 33 | 1017.2 |
| 20260502211551 | 18 | 294 | 4.8 | 16.1 | 0.00 | 0.00 | 0.00 | 33 | 1017.4 |
| 20260502210050 | 18 | 79 | 3.2 | 16.1 | 0.00 | 0.00 | 0.00 | 33 | 1017.7 |
| 20260502204551 | 18 | 352 | 8.0 | 22.5 | 0.00 | 0.00 | 0.00 | 34 | 1017.7 |
| 20260502203047 | 19 | 300 | 9.7 | 16.1 | 0.00 | 0.00 | 0.00 | 32 | 1017.9 |
| 20260502201552 | 18 | 317 | 6.4 | 16.1 | 0.00 | 0.00 | 0.00 | 35 | 1018.0 |
| 20260502200053 | 18 | 291 | 6.4 | 20.9 | 0.00 | 0.00 | 0.00 | 35 | 1018.2 |
| 20260502194555 | 18 | 269 | 9.7 | 22.5 | 0.00 | 0.00 | 0.00 | 36 | 1018.3 |
| 20260502193053 | 18 | 348 | 11.3 | 17.7 | 0.00 | 0.00 | 0.00 | 35 | 1018.6 |
| 20260502191554 | 18 | 288 | 3.2 | 16.1 | 0.00 | 0.00 | 0.00 | 35 | 1019.0 |
| 20260502190055 | 18 | 266 | 9.7 | 16.1 | 0.00 | 0.00 | 0.00 | 36 | 1018.9 |
| 20260502184554 | 17 | 350 | 4.8 | 16.1 | 0.00 | 0.00 | 0.00 | 37 | 1019.3 |
| 20260502183052 | 17 | 314 | 4.8 | 19.3 | 0.00 | 0.00 | 0.00 | 37 | 1019.3 |
| 20260502181552 | 18 | 273 | 9.7 | 20.9 | 0.00 | 0.00 | 0.00 | 36 | 1019.3 |
| 20260502180106 | 18 | 335 | 8.0 | 16.1 | 0.00 | 0.00 | 0.00 | 37 | 1019.5 |
| 20260502163051 | 15 | 333 | 4.8 | 17.7 | 0.00 | 0.00 | 0.00 | 43 | 1019.9 |
| 20260502161550 | 15 | 252 | 6.4 | 16.1 | 0.00 | 0.00 | 0.00 | 43 | 1019.9 |
| 20260502151553 | 12 | 360 | 14.5 | 24.1 | 0.00 | 0.00 | 0.00 | 52 | 1019.9 |
| 20260502123056 | 5 | 274 | 9.7 | 14.5 | 0.00 | 0.00 | 0.00 | 60 | 1018.8 |
| 20260502121553 | 5 | 277 | 6.4 | 9.7 | 0.00 | 0.00 | 0.00 | 60 | 1018.4 |
| 20260502120105 | 5 | 275 | 4.8 | 11.3 | 0.00 | 0.00 | 0.00 | 59 | 1018.4 |
| 20260502114555 | 5 | 306 | 6.4 | 14.5 | 0.00 | 0.00 | 0.00 | 59 | 1018.3 |
| 20260502113057 | 5 | 273 | 8.0 | 12.9 | 0.00 | 0.00 | 0.00 | 57 | 1018.2 |
| 20260502111605 | 5 | 289 | 9.7 | 16.1 | 0.00 | 0.00 | 0.00 | 57 | 1017.8 |
| 20260502110056 | 6 | 257 | 11.3 | 12.9 | 0.00 | 0.00 | 0.00 | 56 | 1017.5 |
| 20260502104550 | 6 | 271 | 11.3 | 14.5 | 0.00 | 0.00 | 0.00 | 53 | 1017.2 |
| 20260502103106 | 7 | 267 | 8.0 | 11.3 | 0.00 | 0.00 | 0.00 | 52 | 1017.1 |
| 20260502101604 | 7 | 284 | 8.0 | 16.1 | 0.00 | 0.00 | 0.00 | 52 | 1017.0 |
| 20260502070045 | 8 | 259 | 3.2 | 6.4 | 0.00 | 0.00 | 0.00 | 37 | 1015.5 |
| 20260502064547 | 8 | 9 | 1.6 | 6.4 | 0.00 | 0.00 | 0.00 | 39 | 1015.5 |
| 20260502063053 | 8 | 9 | 3.2 | 6.4 | 0.00 | 0.00 | 0.00 | 41 | 1015.6 |
| 20260502061553 | 8 | 9 | 4.8 | 8.0 | 0.00 | 0.00 | 0.00 | 40 | 1015.5 |
| 20260502060056 | 8 | 11 | 4.8 | 9.7 | 0.00 | 0.00 | 0.00 | 37 | 1015.3 |
| 20260502054553 | 10 | 314 | 4.8 | 9.7 | 0.00 | 0.00 | 0.00 | 35 | 1015.2 |
| 20260502053055 | 10 | 329 | 8.0 | 12.9 | 0.00 | 0.00 | 0.00 | 35 | 1015.2 |
| 20260502051552 | 11 | 323 | 4.8 | 11.3 | 0.00 | 0.00 | 0.00 | 33 | 1015.2 |
| 20260502050049 | 11 | 280 | 4.8 | 11.3 | 0.00 | 0.00 | 0.00 | 32 | 1015.1 |
| 20260502044550 | 11 | 277 | 4.8 | 14.5 | 0.00 | 0.00 | 0.00 | 32 | 1015.0 |
| 20260502043050 | 11 | 286 | 4.8 | 11.3 | 0.00 | 0.00 | 0.00 | 32 | 1014.9 |
| 20260502041546 | 11 | 267 | 11.3 | 16.1 | 0.00 | 0.00 | 0.00 | 30 | 1014.7 |
| 20260502040046 | 13 | 262 | 11.3 | 19.3 | 0.00 | 0.00 | 0.00 | 28 | 1014.8 |
| 20260502034543 | 13 | 274 | 14.5 | 17.7 | 0.00 | 0.00 | 0.00 | 28 | 1014.7 |
| 20260502033047 | 14 | 259 | 12.9 | 16.1 | 0.00 | 0.00 | 0.00 | 25 | 1014.6 |
| 20260502031550 | 15 | 257 | 14.5 | 19.3 | 0.00 | 0.00 | 0.00 | 24 | 1014.4 |
| 20260502030054 | 16 | 267 | 14.5 | 19.3 | 0.00 | 0.00 | 0.00 | 22 | 1014.3 |
| 20260502024553 | 17 | 263 | 12.9 | 16.1 | 0.00 | 0.00 | 0.00 | 19 | 1014.1 |
| 20260502023053 | 18 | 268 | 12.9 | 17.7 | 0.00 | 0.00 | 0.00 | 18 | 1013.9 |
| 20260502021550 | 20 | 273 | 11.3 | 20.9 | 0.00 | 0.00 | 0.00 | 17 | 1013.9 |